sensor_id;sensor_type;location;lat;lon;timestamp;P1;durP1;ratioP1;P2;durP2;ratioP2
41311;SDS011;27061;41.648;24.568;2022-10-16T00:01:48;12.45;;;3.40;;
41311;SDS011;27061;41.648;24.568;2022-10-16T00:04:15;10.43;;;3.53;;
41311;SDS011;27061;41.648;24.568;2022-10-16T00:06:42;11.82;;;4.00;;
41311;SDS011;27061;41.648;24.568;2022-10-16T00:09:09;3.65;;;3.30;;
41311;SDS011;27061;41.648;24.568;2022-10-16T00:11:37;3.92;;;3.40;;
41311;SDS011;27061;41.648;24.568;2022-10-16T00:14:07;9.25;;;3.30;;
41311;SDS011;27061;41.648;24.568;2022-10-16T00:16:37;10.18;;;3.53;;
41311;SDS011;27061;41.648;24.568;2022-10-16T00:19:04;4.35;;;3.50;;
41311;SDS011;27061;41.648;24.568;2022-10-16T00:21:31;3.80;;;3.10;;
41311;SDS011;27061;41.648;24.568;2022-10-16T00:24:01;3.95;;;3.55;;
41311;SDS011;27061;41.648;24.568;2022-10-16T00:26:31;3.50;;;3.30;;
41311;SDS011;27061;41.648;24.568;2022-10-16T00:29:00;5.53;;;3.60;;
41311;SDS011;27061;41.648;24.568;2022-10-16T00:31:27;3.75;;;3.45;;
41311;SDS011;27061;41.648;24.568;2022-10-16T00:33:55;3.60;;;3.40;;
41311;SDS011;27061;41.648;24.568;2022-10-16T00:36:23;6.78;;;3.95;;
41311;SDS011;27061;41.648;24.568;2022-10-16T00:38:53;5.28;;;3.75;;
41311;SDS011;27061;41.648;24.568;2022-10-16T00:41:23;4.00;;;3.70;;
41311;SDS011;27061;41.648;24.568;2022-10-16T00:43:55;7.30;;;3.72;;
41311;SDS011;27061;41.648;24.568;2022-10-16T00:49:09;3.60;;;3.25;;
41311;SDS011;27061;41.648;24.568;2022-10-16T00:51:38;3.88;;;3.47;;
41311;SDS011;27061;41.648;24.568;2022-10-16T00:54:16;4.10;;;3.70;;
41311;SDS011;27061;41.648;24.568;2022-10-16T00:56:46;4.60;;;4.15;;
41311;SDS011;27061;41.648;24.568;2022-10-16T01:01:51;4.60;;;4.18;;
41311;SDS011;27061;41.648;24.568;2022-10-16T01:04:19;16.48;;;4.43;;
41311;SDS011;27061;41.648;24.568;2022-10-16T01:18:00;5.70;;;4.50;;
41311;SDS011;27061;41.648;24.568;2022-10-16T01:21:01;7.45;;;4.93;;
41311;SDS011;27061;41.648;24.568;2022-10-16T01:29:00;5.13;;;4.68;;
41311;SDS011;27061;41.648;24.568;2022-10-16T01:31:37;10.20;;;4.65;;
41311;SDS011;27061;41.648;24.568;2022-10-16T01:34:10;8.93;;;5.00;;
41311;SDS011;27061;41.648;24.568;2022-10-16T01:36:45;13.68;;;4.63;;
41311;SDS011;27061;41.648;24.568;2022-10-16T01:39:17;7.80;;;4.88;;
41311;SDS011;27061;41.648;24.568;2022-10-16T01:42:11;5.72;;;4.60;;
41311;SDS011;27061;41.648;24.568;2022-10-16T01:44:41;6.32;;;4.72;;
41311;SDS011;27061;41.648;24.568;2022-10-16T01:47:10;6.15;;;4.45;;
41311;SDS011;27061;41.648;24.568;2022-10-16T01:49:39;5.53;;;4.85;;
41311;SDS011;27061;41.648;24.568;2022-10-16T01:52:13;6.93;;;5.10;;
41311;SDS011;27061;41.648;24.568;2022-10-16T01:54:45;9.18;;;4.32;;
41311;SDS011;27061;41.648;24.568;2022-10-16T01:57:14;5.57;;;4.65;;
41311;SDS011;27061;41.648;24.568;2022-10-16T01:59:47;4.93;;;4.45;;
41311;SDS011;27061;41.648;24.568;2022-10-16T02:02:19;4.95;;;4.32;;
41311;SDS011;27061;41.648;24.568;2022-10-16T02:04:48;11.35;;;4.90;;
41311;SDS011;27061;41.648;24.568;2022-10-16T02:07:19;6.05;;;4.80;;
41311;SDS011;27061;41.648;24.568;2022-10-16T02:09:47;9.10;;;5.45;;
41311;SDS011;27061;41.648;24.568;2022-10-16T02:12:35;15.18;;;5.32;;
41311;SDS011;27061;41.648;24.568;2022-10-16T02:15:03;5.93;;;4.35;;
41311;SDS011;27061;41.648;24.568;2022-10-16T02:17:30;8.60;;;4.75;;
41311;SDS011;27061;41.648;24.568;2022-10-16T02:19:57;5.60;;;4.82;;
41311;SDS011;27061;41.648;24.568;2022-10-16T02:22:27;4.65;;;3.72;;
41311;SDS011;27061;41.648;24.568;2022-10-16T02:25:29;4.68;;;4.28;;
41311;SDS011;27061;41.648;24.568;2022-10-16T02:28:06;5.05;;;4.65;;
41311;SDS011;27061;41.648;24.568;2022-10-16T02:30:40;6.65;;;4.38;;
41311;SDS011;27061;41.648;24.568;2022-10-16T02:33:11;32.65;;;6.30;;
41311;SDS011;27061;41.648;24.568;2022-10-16T02:35:40;12.23;;;5.32;;
41311;SDS011;27061;41.648;24.568;2022-10-16T02:38:09;5.72;;;4.57;;
41311;SDS011;27061;41.648;24.568;2022-10-16T02:40:37;5.28;;;4.03;;
41311;SDS011;27061;41.648;24.568;2022-10-16T02:43:05;6.60;;;3.95;;
41311;SDS011;27061;41.648;24.568;2022-10-16T02:45:33;4.32;;;3.92;;
41311;SDS011;27061;41.648;24.568;2022-10-16T02:48:00;4.97;;;4.25;;
41311;SDS011;27061;41.648;24.568;2022-10-16T02:50:27;10.88;;;4.53;;
41311;SDS011;27061;41.648;24.568;2022-10-16T02:52:54;11.38;;;4.20;;
41311;SDS011;27061;41.648;24.568;2022-10-16T02:55:21;5.65;;;4.45;;
41311;SDS011;27061;41.648;24.568;2022-10-16T02:57:48;4.30;;;3.90;;
41311;SDS011;27061;41.648;24.568;2022-10-16T03:00:15;11.40;;;4.60;;
41311;SDS011;27061;41.648;24.568;2022-10-16T03:02:43;5.43;;;3.88;;
41311;SDS011;27061;41.648;24.568;2022-10-16T03:05:11;6.68;;;4.22;;
41311;SDS011;27061;41.648;24.568;2022-10-16T03:07:38;5.30;;;4.05;;
41311;SDS011;27061;41.648;24.568;2022-10-16T03:10:06;6.30;;;3.88;;
41311;SDS011;27061;41.648;24.568;2022-10-16T03:12:33;7.18;;;3.90;;
41311;SDS011;27061;41.648;24.568;2022-10-16T03:15:00;5.05;;;4.25;;
41311;SDS011;27061;41.648;24.568;2022-10-16T03:17:27;7.82;;;4.18;;
41311;SDS011;27061;41.648;24.568;2022-10-16T03:19:55;5.97;;;4.13;;
41311;SDS011;27061;41.648;24.568;2022-10-16T03:22:21;5.25;;;4.50;;
41311;SDS011;27061;41.648;24.568;2022-10-16T03:24:48;4.15;;;3.85;;
41311;SDS011;27061;41.648;24.568;2022-10-16T03:27:15;6.85;;;4.00;;
41311;SDS011;27061;41.648;24.568;2022-10-16T03:29:43;4.13;;;3.70;;
41311;SDS011;27061;41.648;24.568;2022-10-16T03:32:10;11.40;;;4.38;;
41311;SDS011;27061;41.648;24.568;2022-10-16T03:34:37;5.70;;;4.07;;
41311;SDS011;27061;41.648;24.568;2022-10-16T03:37:04;17.05;;;4.63;;
41311;SDS011;27061;41.648;24.568;2022-10-16T03:39:31;4.72;;;4.32;;
41311;SDS011;27061;41.648;24.568;2022-10-16T03:41:58;4.35;;;3.47;;
41311;SDS011;27061;41.648;24.568;2022-10-16T03:44:25;4.90;;;3.83;;
41311;SDS011;27061;41.648;24.568;2022-10-16T03:46:52;5.55;;;3.75;;
41311;SDS011;27061;41.648;24.568;2022-10-16T03:49:19;5.13;;;3.75;;
41311;SDS011;27061;41.648;24.568;2022-10-16T03:51:46;4.03;;;3.70;;
41311;SDS011;27061;41.648;24.568;2022-10-16T03:54:13;9.07;;;3.90;;
41311;SDS011;27061;41.648;24.568;2022-10-16T03:56:40;11.55;;;3.70;;
41311;SDS011;27061;41.648;24.568;2022-10-16T03:59:07;4.32;;;3.92;;
41311;SDS011;27061;41.648;24.568;2022-10-16T04:01:34;8.02;;;3.80;;
41311;SDS011;27061;41.648;24.568;2022-10-16T04:04:01;5.97;;;3.78;;
41311;SDS011;27061;41.648;24.568;2022-10-16T04:06:28;9.80;;;3.60;;
41311;SDS011;27061;41.648;24.568;2022-10-16T04:08:55;7.20;;;4.15;;
41311;SDS011;27061;41.648;24.568;2022-10-16T04:11:22;4.00;;;3.63;;
41311;SDS011;27061;41.648;24.568;2022-10-16T04:13:49;5.30;;;3.50;;
41311;SDS011;27061;41.648;24.568;2022-10-16T04:16:16;17.05;;;4.25;;
41311;SDS011;27061;41.648;24.568;2022-10-16T04:18:43;7.82;;;4.15;;
41311;SDS011;27061;41.648;24.568;2022-10-16T04:21:11;14.30;;;4.20;;
41311;SDS011;27061;41.648;24.568;2022-10-16T04:23:38;7.47;;;3.33;;
41311;SDS011;27061;41.648;24.568;2022-10-16T04:26:05;5.45;;;3.92;;
41311;SDS011;27061;41.648;24.568;2022-10-16T04:28:32;5.60;;;3.72;;
41311;SDS011;27061;41.648;24.568;2022-10-16T04:30:59;7.70;;;3.83;;
41311;SDS011;27061;41.648;24.568;2022-10-16T04:33:26;4.70;;;3.38;;
41311;SDS011;27061;41.648;24.568;2022-10-16T04:35:57;5.22;;;3.45;;
41311;SDS011;27061;41.648;24.568;2022-10-16T04:38:25;14.48;;;3.97;;
41311;SDS011;27061;41.648;24.568;2022-10-16T04:40:52;4.25;;;3.67;;
41311;SDS011;27061;41.648;24.568;2022-10-16T04:43:19;4.00;;;3.50;;
41311;SDS011;27061;41.648;24.568;2022-10-16T04:45:47;5.03;;;3.40;;
41311;SDS011;27061;41.648;24.568;2022-10-16T04:48:17;8.55;;;4.10;;
41311;SDS011;27061;41.648;24.568;2022-10-16T04:50:45;9.18;;;4.07;;
41311;SDS011;27061;41.648;24.568;2022-10-16T04:53:16;7.60;;;4.00;;
41311;SDS011;27061;41.648;24.568;2022-10-16T04:55:44;16.35;;;4.47;;
41311;SDS011;27061;41.648;24.568;2022-10-16T04:58:11;12.55;;;3.85;;
41311;SDS011;27061;41.648;24.568;2022-10-16T05:00:38;10.88;;;4.28;;
41311;SDS011;27061;41.648;24.568;2022-10-16T05:03:05;4.30;;;3.40;;
41311;SDS011;27061;41.648;24.568;2022-10-16T05:05:35;4.22;;;3.80;;
41311;SDS011;27061;41.648;24.568;2022-10-16T05:08:03;10.65;;;3.75;;
41311;SDS011;27061;41.648;24.568;2022-10-16T05:10:30;6.53;;;3.40;;
41311;SDS011;27061;41.648;24.568;2022-10-16T05:12:57;17.45;;;3.60;;
41311;SDS011;27061;41.648;24.568;2022-10-16T05:15:24;4.63;;;3.67;;
41311;SDS011;27061;41.648;24.568;2022-10-16T05:17:52;18.88;;;4.25;;
41311;SDS011;27061;41.648;24.568;2022-10-16T05:20:20;15.85;;;4.10;;
41311;SDS011;27061;41.648;24.568;2022-10-16T05:22:48;13.18;;;3.92;;
41311;SDS011;27061;41.648;24.568;2022-10-16T05:25:15;6.13;;;3.78;;
41311;SDS011;27061;41.648;24.568;2022-10-16T05:27:43;14.02;;;4.60;;
41311;SDS011;27061;41.648;24.568;2022-10-16T05:30:10;9.63;;;4.05;;
41311;SDS011;27061;41.648;24.568;2022-10-16T05:32:38;13.02;;;4.05;;
41311;SDS011;27061;41.648;24.568;2022-10-16T05:35:05;25.63;;;5.70;;
41311;SDS011;27061;41.648;24.568;2022-10-16T05:37:37;23.60;;;5.55;;
41311;SDS011;27061;41.648;24.568;2022-10-16T05:40:05;14.10;;;5.38;;
41311;SDS011;27061;41.648;24.568;2022-10-16T05:42:32;7.70;;;4.88;;
41311;SDS011;27061;41.648;24.568;2022-10-16T05:44:59;14.23;;;4.55;;
41311;SDS011;27061;41.648;24.568;2022-10-16T05:47:27;19.35;;;5.13;;
41311;SDS011;27061;41.648;24.568;2022-10-16T05:49:55;9.80;;;5.60;;
41311;SDS011;27061;41.648;24.568;2022-10-16T05:52:22;8.40;;;4.50;;
41311;SDS011;27061;41.648;24.568;2022-10-16T05:54:49;5.07;;;4.00;;
41311;SDS011;27061;41.648;24.568;2022-10-16T05:57:16;9.93;;;4.68;;
41311;SDS011;27061;41.648;24.568;2022-10-16T05:59:43;6.47;;;4.65;;
41311;SDS011;27061;41.648;24.568;2022-10-16T06:02:14;4.28;;;3.83;;
41311;SDS011;27061;41.648;24.568;2022-10-16T06:04:41;6.85;;;4.43;;
41311;SDS011;27061;41.648;24.568;2022-10-16T06:07:08;6.57;;;4.70;;
41311;SDS011;27061;41.648;24.568;2022-10-16T06:09:35;6.28;;;3.83;;
41311;SDS011;27061;41.648;24.568;2022-10-16T06:12:02;4.57;;;4.03;;
41311;SDS011;27061;41.648;24.568;2022-10-16T06:14:29;7.75;;;4.70;;
41311;SDS011;27061;41.648;24.568;2022-10-16T06:16:56;4.65;;;4.25;;
41311;SDS011;27061;41.648;24.568;2022-10-16T06:19:23;6.03;;;4.47;;
41311;SDS011;27061;41.648;24.568;2022-10-16T06:21:50;7.78;;;3.95;;
41311;SDS011;27061;41.648;24.568;2022-10-16T06:24:17;4.85;;;3.80;;
41311;SDS011;27061;41.648;24.568;2022-10-16T06:26:44;12.60;;;3.92;;
41311;SDS011;27061;41.648;24.568;2022-10-16T06:29:11;9.20;;;4.38;;
41311;SDS011;27061;41.648;24.568;2022-10-16T06:31:38;6.20;;;3.80;;
41311;SDS011;27061;41.648;24.568;2022-10-16T06:34:08;5.45;;;4.00;;
41311;SDS011;27061;41.648;24.568;2022-10-16T06:36:37;7.55;;;4.45;;
41311;SDS011;27061;41.648;24.568;2022-10-16T06:39:05;4.22;;;3.83;;
41311;SDS011;27061;41.648;24.568;2022-10-16T06:41:35;4.20;;;3.80;;
41311;SDS011;27061;41.648;24.568;2022-10-16T06:44:14;4.65;;;3.70;;
41311;SDS011;27061;41.648;24.568;2022-10-16T06:46:41;5.05;;;3.97;;
41311;SDS011;27061;41.648;24.568;2022-10-16T06:49:09;4.35;;;3.92;;
41311;SDS011;27061;41.648;24.568;2022-10-16T06:51:36;58.72;;;5.97;;
41311;SDS011;27061;41.648;24.568;2022-10-16T06:54:09;6.75;;;3.58;;
41311;SDS011;27061;41.648;24.568;2022-10-16T06:56:36;4.95;;;3.13;;
41311;SDS011;27061;41.648;24.568;2022-10-16T06:59:03;4.80;;;3.72;;
41311;SDS011;27061;41.648;24.568;2022-10-16T07:01:31;5.07;;;3.28;;
41311;SDS011;27061;41.648;24.568;2022-10-16T07:03:58;4.60;;;3.83;;
41311;SDS011;27061;41.648;24.568;2022-10-16T07:06:30;8.30;;;4.32;;
41311;SDS011;27061;41.648;24.568;2022-10-16T07:09:00;4.93;;;3.45;;
41311;SDS011;27061;41.648;24.568;2022-10-16T07:11:30;5.93;;;4.35;;
41311;SDS011;27061;41.648;24.568;2022-10-16T07:13:57;6.75;;;4.05;;
41311;SDS011;27061;41.648;24.568;2022-10-16T07:16:28;8.02;;;4.22;;
41311;SDS011;27061;41.648;24.568;2022-10-16T07:18:57;4.60;;;3.72;;
41311;SDS011;27061;41.648;24.568;2022-10-16T07:21:28;3.75;;;3.10;;
41311;SDS011;27061;41.648;24.568;2022-10-16T07:23:58;3.25;;;2.95;;
41311;SDS011;27061;41.648;24.568;2022-10-16T07:26:26;3.00;;;2.50;;
41311;SDS011;27061;41.648;24.568;2022-10-16T07:28:55;3.35;;;2.50;;
41311;SDS011;27061;41.648;24.568;2022-10-16T07:31:23;4.93;;;2.92;;
41311;SDS011;27061;41.648;24.568;2022-10-16T07:33:51;39.03;;;4.32;;
41311;SDS011;27061;41.648;24.568;2022-10-16T07:36:18;3.38;;;3.10;;
41311;SDS011;27061;41.648;24.568;2022-10-16T07:38:47;4.32;;;3.15;;
41311;SDS011;27061;41.648;24.568;2022-10-16T07:41:15;2.58;;;2.38;;
41311;SDS011;27061;41.648;24.568;2022-10-16T07:43:51;4.70;;;2.78;;
41311;SDS011;27061;41.648;24.568;2022-10-16T07:46:20;3.60;;;3.00;;
41311;SDS011;27061;41.648;24.568;2022-10-16T07:48:48;9.00;;;2.45;;
41311;SDS011;27061;41.648;24.568;2022-10-16T07:51:17;4.47;;;2.92;;
41311;SDS011;27061;41.648;24.568;2022-10-16T07:53:46;3.22;;;2.90;;
41311;SDS011;27061;41.648;24.568;2022-10-16T07:56:14;2.97;;;2.50;;
41311;SDS011;27061;41.648;24.568;2022-10-16T07:58:42;2.83;;;2.60;;
41311;SDS011;27061;41.648;24.568;2022-10-16T08:01:11;6.50;;;2.80;;
41311;SDS011;27061;41.648;24.568;2022-10-16T08:03:45;4.13;;;2.80;;
41311;SDS011;27061;41.648;24.568;2022-10-16T08:06:14;2.95;;;2.63;;
41311;SDS011;27061;41.648;24.568;2022-10-16T08:08:42;3.35;;;2.88;;
41311;SDS011;27061;41.648;24.568;2022-10-16T08:11:09;3.28;;;2.33;;
41311;SDS011;27061;41.648;24.568;2022-10-16T08:13:36;3.08;;;2.85;;
41311;SDS011;27061;41.648;24.568;2022-10-16T08:16:04;2.67;;;2.40;;
41311;SDS011;27061;41.648;24.568;2022-10-16T08:18:35;7.57;;;2.45;;
41311;SDS011;27061;41.648;24.568;2022-10-16T08:21:04;3.40;;;3.03;;
41311;SDS011;27061;41.648;24.568;2022-10-16T08:23:32;3.83;;;2.60;;
41311;SDS011;27061;41.648;24.568;2022-10-16T08:26:03;3.88;;;2.72;;
41311;SDS011;27061;41.648;24.568;2022-10-16T08:28:33;5.47;;;2.97;;
41311;SDS011;27061;41.648;24.568;2022-10-16T08:31:19;2.80;;;2.60;;
41311;SDS011;27061;41.648;24.568;2022-10-16T08:33:46;22.83;;;3.42;;
41311;SDS011;27061;41.648;24.568;2022-10-16T08:36:14;4.63;;;2.05;;
41311;SDS011;27061;41.648;24.568;2022-10-16T08:38:42;3.15;;;2.83;;
41311;SDS011;27061;41.648;24.568;2022-10-16T08:48:57;2.72;;;2.53;;
41311;SDS011;27061;41.648;24.568;2022-10-16T08:51:29;2.65;;;2.20;;
41311;SDS011;27061;41.648;24.568;2022-10-16T08:53:58;5.22;;;2.38;;
41311;SDS011;27061;41.648;24.568;2022-10-16T08:56:46;2.72;;;2.05;;
41311;SDS011;27061;41.648;24.568;2022-10-16T08:59:13;2.60;;;2.40;;
41311;SDS011;27061;41.648;24.568;2022-10-16T09:01:46;2.40;;;2.20;;
41311;SDS011;27061;41.648;24.568;2022-10-16T09:18:33;3.45;;;1.70;;
41311;SDS011;27061;41.648;24.568;2022-10-16T09:21:18;2.35;;;1.92;;
41311;SDS011;27061;41.648;24.568;2022-10-16T09:23:50;4.88;;;1.80;;
41311;SDS011;27061;41.648;24.568;2022-10-16T09:26:17;4.45;;;2.00;;
41311;SDS011;27061;41.648;24.568;2022-10-16T09:28:49;5.20;;;1.90;;
41311;SDS011;27061;41.648;24.568;2022-10-16T09:31:20;2.13;;;1.73;;
41311;SDS011;27061;41.648;24.568;2022-10-16T09:33:50;2.42;;;2.25;;
41311;SDS011;27061;41.648;24.568;2022-10-16T09:36:25;2.35;;;1.58;;
41311;SDS011;27061;41.648;24.568;2022-10-16T09:39:02;1.48;;;1.40;;
41311;SDS011;27061;41.648;24.568;2022-10-16T09:41:36;1.63;;;1.52;;
41311;SDS011;27061;41.648;24.568;2022-10-16T09:44:13;1.60;;;1.50;;
41311;SDS011;27061;41.648;24.568;2022-10-16T09:46:46;2.00;;;1.90;;
41311;SDS011;27061;41.648;24.568;2022-10-16T09:49:21;1.65;;;1.25;;
41311;SDS011;27061;41.648;24.568;2022-10-16T09:52:02;1.33;;;1.23;;
41311;SDS011;27061;41.648;24.568;2022-10-16T09:54:48;1.40;;;1.35;;
41311;SDS011;27061;41.648;24.568;2022-10-16T09:57:16;3.70;;;1.10;;
41311;SDS011;27061;41.648;24.568;2022-10-16T09:59:47;4.63;;;1.40;;
41311;SDS011;27061;41.648;24.568;2022-10-16T10:02:42;12.40;;;1.60;;
41311;SDS011;27061;41.648;24.568;2022-10-16T10:05:06;4.60;;;1.60;;
41311;SDS011;27061;41.648;24.568;2022-10-16T10:07:44;2.20;;;1.20;;
41311;SDS011;27061;41.648;24.568;2022-10-16T10:10:22;14.77;;;1.38;;
41311;SDS011;27061;41.648;24.568;2022-10-16T10:13:00;5.53;;;1.58;;
41311;SDS011;27061;41.648;24.568;2022-10-16T10:15:32;2.65;;;1.27;;
41311;SDS011;27061;41.648;24.568;2022-10-16T10:18:01;1.23;;;1.13;;
41311;SDS011;27061;41.648;24.568;2022-10-16T10:20:30;2.92;;;1.10;;
41311;SDS011;27061;41.648;24.568;2022-10-16T10:23:01;1.77;;;1.20;;
41311;SDS011;27061;41.648;24.568;2022-10-16T10:26:01;0.93;;;0.93;;
41311;SDS011;27061;41.648;24.568;2022-10-16T10:28:36;1.10;;;1.10;;
41311;SDS011;27061;41.648;24.568;2022-10-16T10:36:45;1.65;;;1.15;;
41311;SDS011;27061;41.648;24.568;2022-10-16T10:39:33;2.75;;;1.00;;
41311;SDS011;27061;41.648;24.568;2022-10-16T10:42:28;2.45;;;1.30;;
41311;SDS011;27061;41.648;24.568;2022-10-16T10:45:18;0.93;;;0.90;;
41311;SDS011;27061;41.648;24.568;2022-10-16T10:58:53;6.45;;;1.70;;
41311;SDS011;27061;41.648;24.568;2022-10-16T11:04:10;1.73;;;0.85;;
41311;SDS011;27061;41.648;24.568;2022-10-16T11:06:48;11.10;;;0.90;;
41311;SDS011;27061;41.648;24.568;2022-10-16T11:09:41;3.30;;;1.30;;
41311;SDS011;27061;41.648;24.568;2022-10-16T11:12:26;3.33;;;1.63;;
41311;SDS011;27061;41.648;24.568;2022-10-16T11:15:04;1.85;;;0.77;;
41311;SDS011;27061;41.648;24.568;2022-10-16T11:17:53;0.75;;;0.70;;
41311;SDS011;27061;41.648;24.568;2022-10-16T11:20:34;3.20;;;1.02;;
41311;SDS011;27061;41.648;24.568;2022-10-16T11:23:14;0.95;;;0.90;;
41311;SDS011;27061;41.648;24.568;2022-10-16T11:25:52;3.50;;;0.90;;
41311;SDS011;27061;41.648;24.568;2022-10-16T11:33:39;3.22;;;0.93;;
41311;SDS011;27061;41.648;24.568;2022-10-16T11:39:03;0.60;;;0.60;;
41311;SDS011;27061;41.648;24.568;2022-10-16T11:47:48;3.35;;;1.20;;
41311;SDS011;27061;41.648;24.568;2022-10-16T11:53:22;1.40;;;1.10;;
41311;SDS011;27061;41.648;24.568;2022-10-16T11:55:56;2.03;;;1.00;;
41311;SDS011;27061;41.648;24.568;2022-10-16T11:58:31;2.03;;;1.50;;
41311;SDS011;27061;41.648;24.568;2022-10-16T12:09:27;1.02;;;0.90;;
41311;SDS011;27061;41.648;24.568;2022-10-16T12:11:58;2.20;;;1.02;;
41311;SDS011;27061;41.648;24.568;2022-10-16T12:16:56;2.20;;;1.50;;
41311;SDS011;27061;41.648;24.568;2022-10-16T12:19:27;1.52;;;1.42;;
41311;SDS011;27061;41.648;24.568;2022-10-16T12:21:56;2.20;;;1.85;;
41311;SDS011;27061;41.648;24.568;2022-10-16T12:26:59;1.42;;;1.33;;
41311;SDS011;27061;41.648;24.568;2022-10-16T12:29:34;0.90;;;0.90;;
41311;SDS011;27061;41.648;24.568;2022-10-16T12:32:02;1.33;;;1.23;;
41311;SDS011;27061;41.648;24.568;2022-10-16T12:37:13;1.85;;;1.40;;
41311;SDS011;27061;41.648;24.568;2022-10-16T12:39:47;1.20;;;1.08;;
41311;SDS011;27061;41.648;24.568;2022-10-16T12:44:55;1.20;;;1.10;;
41311;SDS011;27061;41.648;24.568;2022-10-16T12:49:58;2.42;;;1.50;;
41311;SDS011;27061;41.648;24.568;2022-10-16T12:52:38;55.35;;;12.50;;
41311;SDS011;27061;41.648;24.568;2022-10-16T12:55:06;2.25;;;1.63;;
41311;SDS011;27061;41.648;24.568;2022-10-16T13:00:48;11.38;;;1.38;;
41311;SDS011;27061;41.648;24.568;2022-10-16T13:06:51;11.38;;;1.80;;
41311;SDS011;27061;41.648;24.568;2022-10-16T13:09:32;2.22;;;1.58;;
41311;SDS011;27061;41.648;24.568;2022-10-16T13:17:37;4.93;;;1.33;;
41311;SDS011;27061;41.648;24.568;2022-10-16T13:29:06;1.67;;;1.50;;
41311;SDS011;27061;41.648;24.568;2022-10-16T13:31:33;1.83;;;1.33;;
41311;SDS011;27061;41.648;24.568;2022-10-16T13:34:00;1.60;;;1.50;;
41311;SDS011;27061;41.648;24.568;2022-10-16T13:36:28;2.80;;;1.40;;
41311;SDS011;27061;41.648;24.568;2022-10-16T13:39:06;4.40;;;1.55;;
41311;SDS011;27061;41.648;24.568;2022-10-16T13:41:39;4.15;;;1.50;;
41311;SDS011;27061;41.648;24.568;2022-10-16T13:44:13;1.80;;;1.60;;
41311;SDS011;27061;41.648;24.568;2022-10-16T13:46:43;2.35;;;1.83;;
41311;SDS011;27061;41.648;24.568;2022-10-16T13:49:15;4.05;;;1.88;;
41311;SDS011;27061;41.648;24.568;2022-10-16T13:51:56;1.70;;;1.58;;
41311;SDS011;27061;41.648;24.568;2022-10-16T13:54:24;2.03;;;1.67;;
41311;SDS011;27061;41.648;24.568;2022-10-16T13:56:52;4.50;;;2.63;;
41311;SDS011;27061;41.648;24.568;2022-10-16T13:59:35;21.65;;;14.65;;
41311;SDS011;27061;41.648;24.568;2022-10-16T14:04:57;10.23;;;7.80;;
41311;SDS011;27061;41.648;24.568;2022-10-16T14:07:25;3.10;;;2.80;;
41311;SDS011;27061;41.648;24.568;2022-10-16T14:09:55;6.45;;;3.83;;
41311;SDS011;27061;41.648;24.568;2022-10-16T14:12:26;5.82;;;3.25;;
41311;SDS011;27061;41.648;24.568;2022-10-16T14:14:54;7.90;;;3.70;;
41311;SDS011;27061;41.648;24.568;2022-10-16T14:17:30;8.02;;;2.90;;
41311;SDS011;27061;41.648;24.568;2022-10-16T14:20:00;4.35;;;3.00;;
41311;SDS011;27061;41.648;24.568;2022-10-16T14:22:37;4.50;;;2.38;;
41311;SDS011;27061;41.648;24.568;2022-10-16T14:27:59;10.18;;;3.05;;
41311;SDS011;27061;41.648;24.568;2022-10-16T14:30:32;25.23;;;7.20;;
41311;SDS011;27061;41.648;24.568;2022-10-16T14:35:31;24.73;;;4.00;;
41311;SDS011;27061;41.648;24.568;2022-10-16T14:38:03;7.82;;;2.30;;
41311;SDS011;27061;41.648;24.568;2022-10-16T14:40:33;5.47;;;2.50;;
41311;SDS011;27061;41.648;24.568;2022-10-16T14:43:04;5.78;;;2.25;;
41311;SDS011;27061;41.648;24.568;2022-10-16T14:45:32;1.90;;;1.80;;
41311;SDS011;27061;41.648;24.568;2022-10-16T14:48:03;3.38;;;1.85;;
41311;SDS011;27061;41.648;24.568;2022-10-16T14:50:45;6.45;;;2.03;;
41311;SDS011;27061;41.648;24.568;2022-10-16T14:53:12;5.72;;;2.45;;
41311;SDS011;27061;41.648;24.568;2022-10-16T14:55:40;4.22;;;2.40;;
41311;SDS011;27061;41.648;24.568;2022-10-16T14:58:20;5.88;;;2.38;;
41311;SDS011;27061;41.648;24.568;2022-10-16T15:00:49;10.18;;;2.53;;
41311;SDS011;27061;41.648;24.568;2022-10-16T15:03:16;7.55;;;2.80;;
41311;SDS011;27061;41.648;24.568;2022-10-16T15:05:43;6.07;;;2.05;;
41311;SDS011;27061;41.648;24.568;2022-10-16T15:08:10;4.57;;;2.45;;
41311;SDS011;27061;41.648;24.568;2022-10-16T15:10:40;6.25;;;2.10;;
41311;SDS011;27061;41.648;24.568;2022-10-16T15:13:11;12.43;;;2.53;;
41311;SDS011;27061;41.648;24.568;2022-10-16T15:15:42;7.13;;;2.08;;
41311;SDS011;27061;41.648;24.568;2022-10-16T15:18:10;2.75;;;2.22;;
41311;SDS011;27061;41.648;24.568;2022-10-16T15:20:38;15.50;;;3.38;;
41311;SDS011;27061;41.648;24.568;2022-10-16T15:23:09;14.27;;;2.20;;
41311;SDS011;27061;41.648;24.568;2022-10-16T15:25:43;13.10;;;2.40;;
41311;SDS011;27061;41.648;24.568;2022-10-16T15:28:13;8.85;;;2.65;;
41311;SDS011;27061;41.648;24.568;2022-10-16T15:30:41;5.93;;;4.10;;
41311;SDS011;27061;41.648;24.568;2022-10-16T15:33:15;4.85;;;4.32;;
41311;SDS011;27061;41.648;24.568;2022-10-16T15:35:47;3.55;;;2.60;;
41311;SDS011;27061;41.648;24.568;2022-10-16T15:38:15;3.65;;;2.10;;
41311;SDS011;27061;41.648;24.568;2022-10-16T15:40:43;3.00;;;2.05;;
41311;SDS011;27061;41.648;24.568;2022-10-16T15:43:11;2.22;;;2.03;;
41311;SDS011;27061;41.648;24.568;2022-10-16T15:45:38;3.38;;;2.30;;
41311;SDS011;27061;41.648;24.568;2022-10-16T15:48:05;3.65;;;2.30;;
41311;SDS011;27061;41.648;24.568;2022-10-16T15:50:32;21.60;;;12.52;;
41311;SDS011;27061;41.648;24.568;2022-10-16T15:53:00;24.98;;;18.38;;
41311;SDS011;27061;41.648;24.568;2022-10-16T15:55:27;41.92;;;24.63;;
41311;SDS011;27061;41.648;24.568;2022-10-16T15:57:54;55.33;;;30.25;;
41311;SDS011;27061;41.648;24.568;2022-10-16T16:00:22;16.80;;;6.05;;
41311;SDS011;27061;41.648;24.568;2022-10-16T16:02:53;19.17;;;11.00;;
41311;SDS011;27061;41.648;24.568;2022-10-16T16:05:21;11.48;;;9.77;;
41311;SDS011;27061;41.648;24.568;2022-10-16T16:07:49;6.75;;;4.53;;
41311;SDS011;27061;41.648;24.568;2022-10-16T16:10:18;13.45;;;4.40;;
41311;SDS011;27061;41.648;24.568;2022-10-16T16:12:47;7.55;;;6.75;;
41311;SDS011;27061;41.648;24.568;2022-10-16T16:15:19;7.45;;;6.10;;
41311;SDS011;27061;41.648;24.568;2022-10-16T16:17:48;8.05;;;5.63;;
41311;SDS011;27061;41.648;24.568;2022-10-16T16:20:15;6.95;;;6.30;;
41311;SDS011;27061;41.648;24.568;2022-10-16T16:22:43;18.42;;;6.93;;
41311;SDS011;27061;41.648;24.568;2022-10-16T16:25:10;5.68;;;5.03;;
41311;SDS011;27061;41.648;24.568;2022-10-16T16:27:37;4.63;;;2.83;;
41311;SDS011;27061;41.648;24.568;2022-10-16T16:30:05;12.48;;;2.85;;
41311;SDS011;27061;41.648;24.568;2022-10-16T16:32:34;2.78;;;2.30;;
41311;SDS011;27061;41.648;24.568;2022-10-16T16:35:01;5.60;;;2.25;;
41311;SDS011;27061;41.648;24.568;2022-10-16T16:37:30;3.45;;;2.55;;
41311;SDS011;27061;41.648;24.568;2022-10-16T16:39:57;3.00;;;2.38;;
41311;SDS011;27061;41.648;24.568;2022-10-16T16:42:25;3.65;;;1.80;;
41311;SDS011;27061;41.648;24.568;2022-10-16T16:44:53;3.10;;;2.25;;
41311;SDS011;27061;41.648;24.568;2022-10-16T16:47:20;1.80;;;1.70;;
41311;SDS011;27061;41.648;24.568;2022-10-16T16:49:47;7.63;;;2.20;;
41311;SDS011;27061;41.648;24.568;2022-10-16T16:52:14;3.33;;;2.17;;
41311;SDS011;27061;41.648;24.568;2022-10-16T16:54:42;9.10;;;2.25;;
41311;SDS011;27061;41.648;24.568;2022-10-16T16:57:10;8.45;;;2.25;;
41311;SDS011;27061;41.648;24.568;2022-10-16T16:59:37;2.40;;;1.90;;
41311;SDS011;27061;41.648;24.568;2022-10-16T17:02:04;2.17;;;1.90;;